createdAt,value
2023-12-23T00:01:40.304Z,47.5
2023-12-23T00:03:23.686Z,47.5
2023-12-23T00:05:07.097Z,47.5
2023-12-23T00:06:50.477Z,47.5
2023-12-23T00:08:33.896Z,47.5
2023-12-23T00:10:17.296Z,47.5
2023-12-23T00:12:00.684Z,47.5
2023-12-23T00:17:09.915Z,47.4
2023-12-23T00:18:53.309Z,47.3
2023-12-23T00:20:36.709Z,47.2
2023-12-23T00:22:20.118Z,47.2
2023-12-23T00:24:03.528Z,47.2
2023-12-23T00:25:46.910Z,47.2
2023-12-23T00:27:30.331Z,47.1
2023-12-23T00:29:13.701Z,47.1
2023-12-23T00:30:57.395Z,47.1
2023-12-23T00:32:40.798Z,47.1
2023-12-23T00:34:24.187Z,47.1
2023-12-23T00:36:07.622Z,47
2023-12-23T00:37:50.993Z,47
2023-12-23T00:39:34.386Z,47
2023-12-23T00:41:17.814Z,47
2023-12-23T00:43:01.180Z,47
2023-12-23T00:46:27.681Z,47
2023-12-23T00:48:11.054Z,47
2023-12-23T00:49:54.474Z,47
2023-12-23T00:51:37.843Z,47
2023-12-23T00:53:21.239Z,47
2023-12-23T00:55:04.641Z,47
2023-12-23T00:56:48.026Z,47
2023-12-23T01:01:57.287Z,46.9
2023-12-23T01:03:40.666Z,46.9
2023-12-23T01:05:24.068Z,46.9
2023-12-23T01:07:07.456Z,46.9
2023-12-23T01:08:50.870Z,46.9
2023-12-23T01:10:34.266Z,46.9
2023-12-23T01:12:17.660Z,46.9
2023-12-23T01:14:01.059Z,46.9
2023-12-23T01:17:27.531Z,46.9
2023-12-23T01:19:10.924Z,46.9
2023-12-23T01:20:54.325Z,46.9
2023-12-23T01:22:37.734Z,46.9
2023-12-23T01:24:21.131Z,46.9
2023-12-23T01:26:04.509Z,46.9
2023-12-23T01:27:47.910Z,46.9
2023-12-23T01:29:31.310Z,46.9
2023-12-23T01:32:57.775Z,46.9
2023-12-23T01:34:41.179Z,46.9
2023-12-23T01:36:24.558Z,46.9
2023-12-23T01:38:07.969Z,46.9
2023-12-23T01:39:51.356Z,46.9
2023-12-23T01:41:34.755Z,46.9
2023-12-23T01:43:18.165Z,46.9
2023-12-23T01:45:01.545Z,46.9
2023-12-23T01:48:28.046Z,46.9
2023-12-23T01:50:11.441Z,46.9
2023-12-23T01:51:54.844Z,46.9
2023-12-23T01:53:38.224Z,46.8
2023-12-23T01:55:21.619Z,46.9
2023-12-23T01:57:05.019Z,46.8
2023-12-23T01:58:48.425Z,46.9
2023-12-23T02:00:31.814Z,46.9
2023-12-23T02:02:15.530Z,46.8
2023-12-23T02:03:58.909Z,46.8
2023-12-23T02:05:42.314Z,46.8
2023-12-23T02:07:25.713Z,46.8
2023-12-23T02:09:09.102Z,46.9
2023-12-23T02:10:52.494Z,46.8
2023-12-23T02:12:35.898Z,46.8
2023-12-23T02:14:19.294Z,46.9
2023-12-23T02:17:45.773Z,46.9
2023-12-23T02:19:29.162Z,46.9
2023-12-23T02:21:12.560Z,46.8
2023-12-23T02:22:55.955Z,46.9
2023-12-23T02:24:39.356Z,46.9
2023-12-23T02:26:22.762Z,46.8
2023-12-23T02:28:06.158Z,46.8
2023-12-23T02:29:49.553Z,46.8
2023-12-23T02:33:16.020Z,46.8
2023-12-23T02:34:59.415Z,46.8
2023-12-23T02:36:42.829Z,46.8
2023-12-23T02:38:26.235Z,46.8
2023-12-23T02:40:09.606Z,46.8
2023-12-23T02:41:52.994Z,46.8
2023-12-23T02:43:36.400Z,46.8
2023-12-23T02:45:19.807Z,46.8
2023-12-23T02:48:46.277Z,46.8
2023-12-23T02:50:29.663Z,46.8
2023-12-23T02:52:13.072Z,46.8
2023-12-23T02:53:56.473Z,46.8
2023-12-23T02:55:39.863Z,46.8
2023-12-23T02:57:23.247Z,46.8
2023-12-23T02:59:06.652Z,46.8
2023-12-23T03:00:50.038Z,46.8
2023-12-23T03:04:16.517Z,46.8
2023-12-23T03:05:59.913Z,46.8
2023-12-23T03:07:43.312Z,46.8
2023-12-23T03:09:26.730Z,46.8
2023-12-23T03:11:10.101Z,46.8
2023-12-23T03:12:53.509Z,46.8
2023-12-23T03:14:36.890Z,46.8
2023-12-23T03:16:20.301Z,46.8
2023-12-23T03:18:03.998Z,46.8
2023-12-23T03:19:47.402Z,46.8
2023-12-23T03:21:30.805Z,46.7
2023-12-23T03:23:14.186Z,46.8
2023-12-23T03:24:57.581Z,46.8
2023-12-23T03:26:40.999Z,46.7
2023-12-23T03:28:24.382Z,46.7
2023-12-23T03:30:07.790Z,46.7
2023-12-23T03:33:34.251Z,46.7
2023-12-23T03:35:17.645Z,46.7
2023-12-23T03:37:01.049Z,46.7
2023-12-23T03:38:44.466Z,46.7
2023-12-23T03:40:27.845Z,46.7
2023-12-23T03:42:11.241Z,46.7
2023-12-23T03:43:54.626Z,46.7
2023-12-23T03:45:38.028Z,46.7
2023-12-23T03:49:04.509Z,46.7
2023-12-23T03:50:47.910Z,46.8
2023-12-23T03:52:31.297Z,46.8
2023-12-23T03:54:14.686Z,46.7
2023-12-23T03:55:58.091Z,46.8
2023-12-23T03:57:41.489Z,46.7
2023-12-23T03:59:24.899Z,46.7
2023-12-23T04:01:08.298Z,46.7
2023-12-23T04:04:34.750Z,46.7
2023-12-23T04:06:18.151Z,46.7
2023-12-23T04:08:01.549Z,46.7
2023-12-23T04:09:44.967Z,46.7
2023-12-23T04:11:28.363Z,46.7
2023-12-23T04:13:11.737Z,46.7
2023-12-23T04:14:55.149Z,46.7
2023-12-23T04:16:38.532Z,46.7
2023-12-23T04:20:05.022Z,46.7
2023-12-23T04:21:48.428Z,46.7
2023-12-23T04:23:31.822Z,46.7
2023-12-23T04:25:15.206Z,46.7
2023-12-23T04:26:58.611Z,46.7
2023-12-23T04:28:42.010Z,46.7
2023-12-23T04:30:25.413Z,46.7
2023-12-23T04:35:34.642Z,46.6
2023-12-23T04:37:18.040Z,46.6
2023-12-23T04:39:01.445Z,46.7
2023-12-23T04:40:44.848Z,46.7
2023-12-23T04:42:28.240Z,46.6
2023-12-23T04:44:11.620Z,46.6
2023-12-23T04:45:55.015Z,46.6
2023-12-23T04:51:04.266Z,46.6
2023-12-23T04:52:47.666Z,46.6
2023-12-23T04:54:31.050Z,46.6
2023-12-23T04:56:14.442Z,46.6
2023-12-23T04:57:57.845Z,46.6
2023-12-23T04:59:41.254Z,46.6
2023-12-23T05:01:24.645Z,46.6
2023-12-23T05:03:08.033Z,46.6
2023-12-23T05:04:51.743Z,46.6
2023-12-23T05:06:35.139Z,46.6
2023-12-23T05:08:18.538Z,46.6
2023-12-23T05:10:01.935Z,46.6
2023-12-23T05:11:45.340Z,46.6
2023-12-23T05:13:28.726Z,46.6
2023-12-23T05:15:12.125Z,46.6
2023-12-23T05:16:55.512Z,46.6
2023-12-23T05:18:39.232Z,46.6
2023-12-23T05:20:22.633Z,46.6
2023-12-23T05:22:06.021Z,46.6
2023-12-23T05:23:49.407Z,46.6
2023-12-23T05:25:32.802Z,46.6
2023-12-23T05:27:16.204Z,46.6
2023-12-23T05:28:59.604Z,46.6
2023-12-23T05:30:42.987Z,46.6
2023-12-23T05:34:09.481Z,46.6
2023-12-23T05:35:52.870Z,46.6
2023-12-23T05:37:36.262Z,46.6
2023-12-23T05:39:19.666Z,46.6
2023-12-23T05:41:03.065Z,46.5
2023-12-23T05:42:46.472Z,46.6
2023-12-23T05:44:29.868Z,46.6
2023-12-23T05:46:13.253Z,46.5
2023-12-23T05:47:56.968Z,46.5
2023-12-23T05:49:40.360Z,46.5
2023-12-23T05:51:23.764Z,46.5
2023-12-23T05:53:07.172Z,46.5
2023-12-23T05:54:50.545Z,46.5
2023-12-23T05:56:33.942Z,46.5
2023-12-23T05:58:17.340Z,46.5
2023-12-23T06:00:00.737Z,46.5
2023-12-23T06:03:27.201Z,46.5
2023-12-23T06:05:10.594Z,46.5
2023-12-23T06:06:54.016Z,46.5
2023-12-23T06:08:37.393Z,46.5
2023-12-23T06:10:20.808Z,46.5
2023-12-23T06:12:04.207Z,46.5
2023-12-23T06:13:47.596Z,46.5
2023-12-23T06:15:30.984Z,46.5
2023-12-23T06:17:14.687Z,46.5
2023-12-23T06:18:58.079Z,46.5
2023-12-23T06:20:41.487Z,46.5
2023-12-23T06:22:24.878Z,46.5
2023-12-23T06:24:08.272Z,46.5
2023-12-23T06:25:51.688Z,46.5
2023-12-23T06:27:35.069Z,46.5
2023-12-23T06:29:18.474Z,46.5
2023-12-23T06:32:44.927Z,46.5
2023-12-23T06:34:28.341Z,46.5
2023-12-23T06:36:11.736Z,46.5
2023-12-23T06:37:55.149Z,46.5
2023-12-23T06:39:38.545Z,46.4
2023-12-23T06:41:21.926Z,46.4
2023-12-23T06:43:05.332Z,46.4
2023-12-23T06:48:14.587Z,46.4
2023-12-23T06:49:58.001Z,46.4
2023-12-23T06:51:41.376Z,46.4
2023-12-23T06:53:24.791Z,46.4
2023-12-23T06:55:08.171Z,46.4
2023-12-23T06:56:51.560Z,46.4
2023-12-23T06:58:34.957Z,46.4
2023-12-23T07:00:18.398Z,46.3
2023-12-23T07:02:02.056Z,46.3
2023-12-23T07:03:45.447Z,46.3
2023-12-23T07:05:28.844Z,46.3
2023-12-23T07:07:12.247Z,46.3
2023-12-23T07:08:55.639Z,46.3
2023-12-23T07:10:39.062Z,46.3
2023-12-23T07:12:22.431Z,46.3
2023-12-23T07:14:05.831Z,46.3
2023-12-23T07:19:15.077Z,46.2
2023-12-23T07:20:58.485Z,46.2
2023-12-23T07:22:41.883Z,46.2
2023-12-23T07:24:25.295Z,46.2
2023-12-23T07:26:08.653Z,46.2
2023-12-23T07:27:52.056Z,46.2
2023-12-23T07:29:35.444Z,46.2
2023-12-23T07:31:18.852Z,46.2
2023-12-23T07:34:45.329Z,46.2
2023-12-23T07:36:28.715Z,46.2
2023-12-23T07:38:12.106Z,46.2
2023-12-23T07:39:55.523Z,46.2
2023-12-23T07:41:38.919Z,46.2
2023-12-23T07:43:22.313Z,46.2
2023-12-23T07:45:05.724Z,46.2
2023-12-23T07:46:49.096Z,46.2
2023-12-23T07:51:58.333Z,46.1
2023-12-23T07:53:41.750Z,46.1
2023-12-23T07:55:25.157Z,46.1
2023-12-23T07:57:08.527Z,46.1
2023-12-23T07:58:51.923Z,46.1
2023-12-23T08:00:35.349Z,46.1
2023-12-23T08:02:18.725Z,46.1
2023-12-23T08:04:02.144Z,46.1
2023-12-23T08:07:28.598Z,46.1
2023-12-23T08:09:12.001Z,46.1
2023-12-23T08:10:55.378Z,46.1
2023-12-23T08:12:38.834Z,46
2023-12-23T08:14:22.186Z,46
2023-12-23T08:16:05.584Z,46
2023-12-23T08:17:48.979Z,46
2023-12-23T08:19:32.365Z,46.1
2023-12-23T08:22:58.860Z,46.1
2023-12-23T08:24:42.256Z,46.3
2023-12-23T08:26:25.653Z,46.1
2023-12-23T08:28:09.053Z,46
2023-12-23T08:29:52.419Z,46.1
2023-12-23T08:31:35.852Z,46
2023-12-23T08:33:19.244Z,46.1
2023-12-23T08:35:02.627Z,46
2023-12-23T08:38:29.108Z,46.2
2023-12-23T08:40:12.494Z,46.3
2023-12-23T08:41:55.888Z,46.4
2023-12-23T08:43:39.283Z,46.4
2023-12-23T08:45:22.688Z,46.4
2023-12-23T08:47:06.093Z,46.4
2023-12-23T08:48:49.503Z,46.5
2023-12-23T08:53:58.726Z,46.2
2023-12-23T08:55:42.130Z,46.1
2023-12-23T08:57:25.520Z,46.1
2023-12-23T08:59:08.907Z,46
2023-12-23T09:00:52.300Z,46
2023-12-23T09:02:35.693Z,46
2023-12-23T09:04:19.092Z,46
2023-12-23T09:11:11.733Z,45.9
2023-12-23T09:12:55.131Z,45.8
2023-12-23T09:14:38.540Z,45.8
2023-12-23T09:16:21.925Z,45.7
2023-12-23T09:18:05.328Z,45.7
2023-12-23T09:19:48.726Z,45.7
2023-12-23T09:21:32.133Z,45.7
2023-12-23T09:23:15.833Z,45.6
2023-12-23T09:24:59.208Z,45.7
2023-12-23T09:26:42.637Z,45.5
2023-12-23T09:28:26.024Z,45.6
2023-12-23T09:30:09.421Z,45.6
2023-12-23T09:31:52.831Z,45.6
2023-12-23T09:33:36.201Z,45.7
2023-12-23T09:38:45.458Z,45.7
2023-12-23T09:40:28.862Z,45.7
2023-12-23T09:42:12.266Z,45.7
2023-12-23T09:43:55.644Z,45.7
2023-12-23T09:45:39.057Z,45.6
2023-12-23T09:47:22.451Z,45.7
2023-12-23T09:49:05.838Z,45.6
2023-12-23T09:52:32.307Z,45.6
2023-12-23T09:54:15.705Z,45.6
2023-12-23T09:55:59.111Z,45.6
2023-12-23T09:57:42.483Z,45.6
2023-12-23T09:59:25.894Z,45.6
2023-12-23T10:01:09.301Z,45.8
2023-12-23T10:02:52.702Z,46.2
2023-12-23T10:04:36.105Z,46.5
2023-12-23T10:06:19.780Z,46.3
2023-12-23T10:08:03.272Z,46.3
2023-12-23T10:09:46.599Z,46.3
2023-12-23T10:11:29.976Z,46.4
2023-12-23T10:13:13.372Z,46.4
2023-12-23T10:14:56.777Z,46.4
2023-12-23T10:16:40.192Z,46.5
2023-12-23T10:18:23.569Z,46.4
2023-12-23T10:20:07.269Z,46.4
2023-12-23T10:21:50.685Z,46.4
2023-12-23T10:23:34.073Z,46.5
2023-12-23T10:25:17.471Z,46.5
2023-12-23T10:27:00.867Z,46.4
2023-12-23T10:28:44.265Z,46.1
2023-12-23T10:30:27.646Z,46.1
2023-12-23T10:32:11.046Z,46.2
2023-12-23T10:35:37.516Z,46.1
2023-12-23T10:37:20.909Z,46
2023-12-23T10:39:04.317Z,46
2023-12-23T10:40:47.782Z,46
2023-12-23T10:42:31.127Z,45.9
2023-12-23T10:44:14.504Z,45.9
2023-12-23T10:45:57.915Z,45.8
2023-12-23T10:47:41.293Z,45.8
2023-12-23T10:49:25.012Z,45.8
2023-12-23T10:51:08.398Z,45.7
2023-12-23T10:52:51.798Z,45.7
2023-12-23T10:54:35.192Z,45.7
2023-12-23T10:56:18.598Z,45.6
2023-12-23T10:58:01.980Z,45.6
2023-12-23T10:59:45.375Z,45.6
2023-12-23T11:04:54.663Z,46.6
2023-12-23T11:06:38.028Z,46.4
2023-12-23T11:08:21.419Z,46.3
2023-12-23T11:10:04.818Z,46.8
2023-12-23T11:11:48.222Z,46.6
2023-12-23T11:13:31.636Z,46.8
2023-12-23T11:15:15.012Z,46.4
2023-12-23T11:18:41.491Z,46.1
2023-12-23T11:20:24.890Z,46.2
2023-12-23T11:22:08.275Z,46.2
2023-12-23T11:23:51.669Z,46.2
2023-12-23T11:25:35.076Z,46.2
2023-12-23T11:27:18.483Z,46.3
2023-12-23T11:29:01.867Z,46.2
2023-12-23T11:30:45.264Z,46
2023-12-23T11:32:28.987Z,45.9
2023-12-23T11:34:12.363Z,45.9
2023-12-23T11:35:55.776Z,45.8
2023-12-23T11:37:39.159Z,45.8
2023-12-23T11:39:22.542Z,45.8
2023-12-23T11:41:05.962Z,45.8
2023-12-23T11:42:49.345Z,45.8
2023-12-23T11:44:32.736Z,45.8
2023-12-23T11:46:16.456Z,45.9
2023-12-23T11:47:59.845Z,45.7
2023-12-23T11:49:43.309Z,45.8
2023-12-23T11:51:26.653Z,45.8
2023-12-23T11:53:10.040Z,45.8
2023-12-23T11:54:53.485Z,45.8
2023-12-23T11:56:36.858Z,45.8
2023-12-23T11:58:20.235Z,45.9
2023-12-23T12:00:03.942Z,45.9
2023-12-23T12:01:47.317Z,45.9
2023-12-23T12:03:30.739Z,45.8
2023-12-23T12:05:14.116Z,45.9
2023-12-23T12:06:57.527Z,46.1
2023-12-23T12:08:40.912Z,46.4
2023-12-23T12:10:24.361Z,46.2
2023-12-23T12:12:07.712Z,46
2023-12-23T12:13:51.414Z,46
2023-12-23T12:15:34.812Z,46
2023-12-23T12:17:18.195Z,46
2023-12-23T12:19:01.594Z,46
2023-12-23T12:20:45.005Z,46
2023-12-23T12:22:28.397Z,46
2023-12-23T12:24:11.785Z,45.9
2023-12-23T12:25:55.191Z,46
2023-12-23T12:27:38.914Z,45.9
2023-12-23T12:29:22.293Z,46
2023-12-23T12:31:05.683Z,45.9
2023-12-23T12:32:49.068Z,46
2023-12-23T12:34:32.482Z,46
2023-12-23T12:36:15.949Z,46
2023-12-23T12:37:59.277Z,46
2023-12-23T12:39:42.677Z,46
2023-12-23T12:41:26.387Z,46
2023-12-23T12:43:09.769Z,46
2023-12-23T12:44:53.204Z,46
2023-12-23T12:46:36.566Z,46
2023-12-23T12:48:19.961Z,45.9
2023-12-23T12:50:03.368Z,45.9
2023-12-23T12:51:46.768Z,45.9
2023-12-23T12:53:30.163Z,46
2023-12-23T12:55:13.885Z,46.1
2023-12-23T12:56:57.273Z,46.1
2023-12-23T12:58:40.659Z,46.2
2023-12-23T13:00:24.066Z,46.3
2023-12-23T13:02:07.461Z,46.4
2023-12-23T13:03:50.866Z,46.6
2023-12-23T13:05:34.236Z,46.7
2023-12-23T13:07:17.655Z,46.9
2023-12-23T13:10:44.128Z,47.1
2023-12-23T13:12:27.522Z,47.1
2023-12-23T13:14:10.907Z,47.1
2023-12-23T13:15:54.308Z,47.2
2023-12-23T13:17:37.743Z,47.3
2023-12-23T13:19:21.088Z,47.3
2023-12-23T13:21:04.494Z,47.4
2023-12-23T13:22:47.900Z,47.5
2023-12-23T13:26:14.373Z,47.6
2023-12-23T13:27:57.781Z,47.7
2023-12-23T13:29:41.146Z,47.9
2023-12-23T13:31:24.548Z,47.9
2023-12-23T13:33:07.948Z,47.9
2023-12-23T13:34:51.363Z,47.9
2023-12-23T13:36:34.738Z,48
2023-12-23T13:38:18.140Z,48.1
2023-12-23T13:40:01.847Z,48.2
2023-12-23T13:41:45.236Z,48.2
2023-12-23T13:43:28.658Z,48.3
2023-12-23T13:45:12.204Z,48.3
2023-12-23T13:46:55.438Z,48.4
2023-12-23T13:48:39.150Z,48.5
2023-12-23T13:50:22.229Z,48.6
2023-12-23T13:52:05.627Z,48.8
2023-12-23T13:53:49.345Z,48.9
2023-12-23T13:55:32.726Z,49
2023-12-23T13:57:16.119Z,48.9
2023-12-23T13:58:59.534Z,49
2023-12-23T14:00:42.914Z,49.1
2023-12-23T14:02:26.326Z,49.1
2023-12-23T14:04:09.715Z,49.2
2023-12-23T14:05:53.110Z,49.3
2023-12-23T14:09:19.592Z,49.4
2023-12-23T14:11:02.993Z,49.5
2023-12-23T14:12:46.379Z,49.6
2023-12-23T14:14:29.777Z,49.6
2023-12-23T14:16:13.167Z,49.8
2023-12-23T14:17:56.575Z,50.1
2023-12-23T14:19:39.958Z,50.3
2023-12-23T14:23:06.452Z,50.5
2023-12-23T14:24:49.853Z,50.7
2023-12-23T14:26:33.236Z,50.9
2023-12-23T14:28:16.645Z,50.5
2023-12-23T14:30:00.015Z,50.3
2023-12-23T14:31:43.437Z,50.2
2023-12-23T14:33:26.845Z,50.2
2023-12-23T14:38:36.059Z,50.2
2023-12-23T14:40:19.464Z,50.3
2023-12-23T14:42:02.861Z,50.9
2023-12-23T14:43:46.274Z,51
2023-12-23T14:45:29.651Z,51
2023-12-23T14:47:13.060Z,51.3
2023-12-23T14:48:56.456Z,51.4
2023-12-23T14:52:22.915Z,51.7
2023-12-23T14:54:06.301Z,51.7
2023-12-23T14:55:49.722Z,51.8
2023-12-23T14:57:33.111Z,51.8
2023-12-23T14:59:16.511Z,51.8
2023-12-23T15:00:59.900Z,51.7
2023-12-23T15:02:43.291Z,51.7
2023-12-23T15:07:52.538Z,52
2023-12-23T15:09:35.949Z,52.1
2023-12-23T15:11:19.340Z,50.9
2023-12-23T15:13:02.737Z,48.4
2023-12-23T15:14:46.135Z,48.8
2023-12-23T15:16:29.523Z,48.8
2023-12-23T15:18:12.913Z,48.9
2023-12-23T15:21:39.400Z,49.5
2023-12-23T15:23:22.808Z,49.8
2023-12-23T15:25:06.179Z,50.1
2023-12-23T15:26:49.592Z,50.1
2023-12-23T15:28:32.973Z,50.1
2023-12-23T15:30:16.369Z,50.2
2023-12-23T15:31:59.779Z,50.3
2023-12-23T15:35:26.250Z,50.3
2023-12-23T15:37:09.647Z,50.7
2023-12-23T15:38:53.039Z,50.7
2023-12-23T15:40:36.427Z,50.6
2023-12-23T15:42:19.843Z,50.7
2023-12-23T15:44:03.237Z,50.9
2023-12-23T15:45:46.620Z,50.8
2023-12-23T15:49:13.118Z,51.4
2023-12-23T15:50:56.501Z,51.4
2023-12-23T15:52:39.891Z,51.3
2023-12-23T15:54:23.288Z,51.5
2023-12-23T15:56:06.685Z,51.6
2023-12-23T15:57:50.078Z,51.6
2023-12-23T15:59:33.518Z,52
2023-12-23T16:01:16.886Z,52.3
2023-12-23T16:04:43.345Z,51.9
2023-12-23T16:06:26.746Z,51.8
2023-12-23T16:08:10.146Z,51.8
2023-12-23T16:09:53.536Z,52
2023-12-23T16:11:36.943Z,51.7
2023-12-23T16:13:20.343Z,51.6
2023-12-23T16:15:03.725Z,51.6
2023-12-23T16:16:47.127Z,51.8
2023-12-23T16:20:13.640Z,51.7
2023-12-23T16:21:56.995Z,51.8
2023-12-23T16:23:40.421Z,51.7
2023-12-23T16:25:23.813Z,51.7
2023-12-23T16:27:07.228Z,51.5
2023-12-23T16:28:50.607Z,51.6
2023-12-23T16:30:33.988Z,51.6
2023-12-23T16:32:17.379Z,51.6
2023-12-23T16:35:43.886Z,51.6
2023-12-23T16:37:27.263Z,51.7
2023-12-23T16:39:10.659Z,51.7
2023-12-23T16:40:54.083Z,51.6
2023-12-23T16:44:20.856Z,51.8
2023-12-23T16:46:04.234Z,51.6
2023-12-23T16:47:47.672Z,51.7
2023-12-23T16:51:14.108Z,51.3
2023-12-23T16:52:57.529Z,51.1
2023-12-23T16:54:40.904Z,51
2023-12-23T16:56:24.290Z,51
2023-12-23T16:58:07.708Z,51.1
2023-12-23T16:59:51.114Z,51.1
2023-12-23T17:01:34.527Z,51
2023-12-23T17:03:17.882Z,51
2023-12-23T17:06:44.386Z,51
2023-12-23T17:08:27.785Z,51
2023-12-23T17:10:11.167Z,51.1
2023-12-23T17:11:54.588Z,51.2
2023-12-23T17:13:38.001Z,51.2
2023-12-23T17:15:21.391Z,51.2
2023-12-23T17:17:04.761Z,51.5
2023-12-23T17:22:14.002Z,51.3
2023-12-23T17:23:57.396Z,51.3
2023-12-23T17:25:40.821Z,51.3
2023-12-23T17:27:24.200Z,51.4
2023-12-23T17:29:07.587Z,51.4
2023-12-23T17:30:50.976Z,51.4
2023-12-23T17:32:34.380Z,51.5
2023-12-23T17:36:00.870Z,51.5
2023-12-23T17:37:44.268Z,51.6
2023-12-23T17:39:27.652Z,51.5
2023-12-23T17:41:11.048Z,51.6
2023-12-23T17:42:54.454Z,51.6
2023-12-23T17:44:37.843Z,51.6
2023-12-23T17:46:21.229Z,51.6
2023-12-23T17:48:04.621Z,51.6
2023-12-23T17:49:48.356Z,51.6
2023-12-23T17:51:31.729Z,51.7
2023-12-23T17:53:15.127Z,51.7
2023-12-23T17:54:58.521Z,51.8
2023-12-23T17:56:41.945Z,51.9
2023-12-23T17:58:25.344Z,51.8
2023-12-23T18:00:08.714Z,51.8
2023-12-23T18:01:52.143Z,51.8
2023-12-23T18:05:18.594Z,51.9
2023-12-23T18:07:01.996Z,51.8
2023-12-23T18:08:45.394Z,51.8
2023-12-23T18:10:28.777Z,51.9
2023-12-23T18:12:12.173Z,51.9
2023-12-23T18:13:55.606Z,51.9
2023-12-23T18:15:38.978Z,51.9
2023-12-23T18:17:22.460Z,52
2023-12-23T18:22:31.612Z,52.2
2023-12-23T18:24:15.022Z,52.2
2023-12-23T18:25:58.417Z,52.1
2023-12-23T18:27:41.801Z,52.1
2023-12-23T18:29:25.203Z,52.3
2023-12-23T18:31:08.600Z,52.3
2023-12-23T18:32:51.993Z,52.3
2023-12-23T18:34:35.387Z,52.2
2023-12-23T18:38:01.867Z,52.2
2023-12-23T18:39:45.273Z,52.2
2023-12-23T18:41:28.685Z,52.3
2023-12-23T18:43:12.041Z,52.3
2023-12-23T18:44:55.442Z,52.2
2023-12-23T18:46:38.838Z,52.3
2023-12-23T18:48:22.258Z,52.3
2023-12-23T18:50:05.639Z,52.3
2023-12-23T18:51:49.340Z,52.3
2023-12-23T18:53:32.745Z,52.4
2023-12-23T18:55:16.164Z,52.4
2023-12-23T18:56:59.540Z,52.4
2023-12-23T18:58:42.933Z,52.4
2023-12-23T19:00:26.318Z,52.4
2023-12-23T19:02:09.735Z,52.4
2023-12-23T19:03:53.167Z,52.4
2023-12-23T19:07:19.596Z,52.4
2023-12-23T19:09:02.992Z,52.4
2023-12-23T19:10:46.383Z,52.4
2023-12-23T19:12:29.797Z,52.4
2023-12-23T19:14:13.171Z,52.4
2023-12-23T19:15:56.583Z,52.4
2023-12-23T19:17:39.973Z,52.4
2023-12-23T19:21:06.451Z,52.4
2023-12-23T19:24:33.249Z,52.3
2023-12-23T19:26:16.736Z,52.3
2023-12-23T19:28:00.052Z,52.3
2023-12-23T19:29:43.433Z,52.4
2023-12-23T19:31:26.853Z,52.4
2023-12-23T19:33:10.232Z,52.4
2023-12-23T19:36:36.713Z,52.4
2023-12-23T19:38:20.092Z,52.4
2023-12-23T19:40:03.533Z,52.4
2023-12-23T19:41:46.947Z,52.3
2023-12-23T19:43:30.293Z,52.3
2023-12-23T19:45:13.696Z,52.3
2023-12-23T19:46:57.093Z,52.3
2023-12-23T19:50:23.573Z,52.2
2023-12-23T19:52:06.945Z,52.2
2023-12-23T19:53:50.352Z,52.2
2023-12-23T19:55:33.755Z,52.2
2023-12-23T19:57:17.153Z,52.2
2023-12-23T19:59:00.542Z,52.1
2023-12-23T20:00:43.995Z,52.1
2023-12-23T20:02:27.326Z,52.1
2023-12-23T20:04:11.051Z,52
2023-12-23T20:05:54.429Z,52
2023-12-23T20:07:37.833Z,52
2023-12-23T20:09:21.233Z,52
2023-12-23T20:11:04.626Z,52
2023-12-23T20:12:48.013Z,52
2023-12-23T20:14:31.434Z,51.9
2023-12-23T20:19:40.660Z,51.6
2023-12-23T20:21:24.062Z,51.6
2023-12-23T20:23:07.471Z,51.6
2023-12-23T20:24:50.864Z,51.7
2023-12-23T20:26:34.253Z,51.6
2023-12-23T20:28:17.649Z,51.6
2023-12-23T20:35:10.920Z,51.6
2023-12-23T20:36:54.322Z,51.6
2023-12-23T20:38:37.728Z,51.6
2023-12-23T20:40:21.121Z,51.5
2023-12-23T20:42:04.516Z,51.3
2023-12-23T20:43:47.925Z,51.3
2023-12-23T20:48:57.156Z,51.1
2023-12-23T20:50:40.549Z,51
2023-12-23T20:52:23.958Z,51
2023-12-23T20:54:07.360Z,50.9
2023-12-23T20:55:50.792Z,50.7
2023-12-23T20:57:34.157Z,50.6
2023-12-23T20:59:17.541Z,50.6
2023-12-23T21:04:26.776Z,50.5
2023-12-23T21:06:10.177Z,50.5
2023-12-23T21:07:53.573Z,50.5
2023-12-23T21:09:36.964Z,50.5
2023-12-23T21:11:20.379Z,50.5
2023-12-23T21:13:03.762Z,50.4
2023-12-23T21:14:47.168Z,50.4
2023-12-23T21:18:13.625Z,50.3
2023-12-23T21:19:57.029Z,50.3
2023-12-23T21:21:40.497Z,50.2
2023-12-23T21:23:23.844Z,50.2
2023-12-23T21:25:07.247Z,50.2
2023-12-23T21:26:50.635Z,50.2
2023-12-23T21:28:34.050Z,50.2
2023-12-23T21:30:17.426Z,50.2
2023-12-23T21:32:01.161Z,50.1
2023-12-23T21:33:44.647Z,50.1
2023-12-23T21:35:27.923Z,50.1
2023-12-23T21:37:11.322Z,50.1
2023-12-23T21:38:54.712Z,50
2023-12-23T21:40:38.109Z,50
2023-12-23T21:42:21.491Z,50
2023-12-23T21:44:04.905Z,50
2023-12-23T21:45:48.596Z,50
2023-12-23T21:47:31.999Z,50
2023-12-23T21:49:15.401Z,50
2023-12-23T21:50:58.810Z,50
2023-12-23T21:52:42.185Z,50
2023-12-23T21:54:25.670Z,49.9
2023-12-23T21:56:08.974Z,49.9
2023-12-23T21:57:52.382Z,49.9
2023-12-23T21:59:36.084Z,49.9
2023-12-23T22:01:19.491Z,49.9
2023-12-23T22:03:02.891Z,49.9
2023-12-23T22:04:46.267Z,49.9
2023-12-23T22:06:29.672Z,49.8
2023-12-23T22:08:13.058Z,49.8
2023-12-23T22:09:56.473Z,49.8
2023-12-23T22:11:39.867Z,49.8
2023-12-23T22:13:23.557Z,49.8
2023-12-23T22:15:06.974Z,49.7
2023-12-23T22:16:50.362Z,49.7
2023-12-23T22:18:33.780Z,49.7
2023-12-23T22:20:17.157Z,49.7
2023-12-23T22:22:00.563Z,49.7
2023-12-23T22:23:43.944Z,49.6
2023-12-23T22:25:27.345Z,49.6
2023-12-23T22:28:53.812Z,49.6
2023-12-23T22:30:37.204Z,49.6
2023-12-23T22:32:20.614Z,49.6
2023-12-23T22:34:04.012Z,49.6
2023-12-23T22:35:47.401Z,49.6
2023-12-23T22:37:30.805Z,49.5
2023-12-23T22:39:14.188Z,49.5
2023-12-23T22:40:57.592Z,49.5
2023-12-23T22:42:41.292Z,49.5
2023-12-23T22:44:24.702Z,49.5
2023-12-23T22:46:08.081Z,49.5
2023-12-23T22:47:51.489Z,49.4
2023-12-23T22:49:34.883Z,49.4
2023-12-23T22:51:18.282Z,49.4
2023-12-23T22:53:01.694Z,49.4
2023-12-23T22:54:45.075Z,49.4
2023-12-23T22:58:11.552Z,49.4
2023-12-23T22:59:54.944Z,49.4
2023-12-23T23:01:38.352Z,49.4
2023-12-23T23:03:21.741Z,49.3
2023-12-23T23:05:05.138Z,49.3
2023-12-23T23:06:48.542Z,49.3
2023-12-23T23:08:31.934Z,49.3
2023-12-23T23:10:15.329Z,49.3
2023-12-23T23:11:59.029Z,49.3
2023-12-23T23:13:42.447Z,49.2
2023-12-23T23:15:25.881Z,49.2
2023-12-23T23:17:09.253Z,49.2
2023-12-23T23:18:52.623Z,49.2
2023-12-23T23:20:36.007Z,49.2
2023-12-23T23:22:19.439Z,49.2
2023-12-23T23:24:02.810Z,49.2
2023-12-23T23:25:46.605Z,49.1
2023-12-23T23:27:29.939Z,49.1
2023-12-23T23:29:13.333Z,49.1
2023-12-23T23:30:56.706Z,49.1
2023-12-23T23:32:40.102Z,49.1
2023-12-23T23:34:23.525Z,49.1
2023-12-23T23:36:06.914Z,49.1
2023-12-23T23:37:50.291Z,49
2023-12-23T23:39:34.011Z,49
2023-12-23T23:41:17.398Z,49
2023-12-23T23:43:00.798Z,49
2023-12-23T23:44:44.188Z,49
2023-12-23T23:46:27.653Z,49
2023-12-23T23:48:10.998Z,49
2023-12-23T23:49:54.392Z,49
2023-12-23T23:51:37.793Z,49
2023-12-23T23:53:21.480Z,49
2023-12-23T23:55:04.878Z,49
2023-12-23T23:56:48.271Z,49
2023-12-23T23:58:31.679Z,49
